createdAt,value
2022-12-17T00:02:19.882Z,78.72
2022-12-17T00:05:06.906Z,78.70
2022-12-17T00:08:10.225Z,78.65
2022-12-17T00:10:56.847Z,78.44
2022-12-17T00:13:43.972Z,78.61
2022-12-17T00:16:30.840Z,78.64
2022-12-17T00:19:17.923Z,78.77
2022-12-17T00:22:04.397Z,78.60
2022-12-17T00:24:51.418Z,78.78
2022-12-17T00:27:38.821Z,79.04
2022-12-17T00:30:26.151Z,78.88
2022-12-17T00:33:13.099Z,78.68
2022-12-17T00:36:00.218Z,78.69
2022-12-17T00:38:48.336Z,78.71
2022-12-17T00:41:35.362Z,78.80
2022-12-17T00:44:22.199Z,78.87
2022-12-17T00:47:09.702Z,78.72
2022-12-17T00:49:56.553Z,79.07
2022-12-17T00:52:45.808Z,78.94
2022-12-17T00:55:32.528Z,78.98
2022-12-17T00:58:19.720Z,79.21
2022-12-17T01:01:06.361Z,79.00
2022-12-17T01:03:53.685Z,78.87
2022-12-17T01:06:40.146Z,79.17
2022-12-17T01:09:27.774Z,79.07
2022-12-17T01:12:14.472Z,79.04
2022-12-17T01:15:02.996Z,79.28
2022-12-17T01:17:49.441Z,79.20
2022-12-17T01:20:36.453Z,79.31
2022-12-17T01:23:27.424Z,79.41
2022-12-17T01:26:16.298Z,79.39
2022-12-17T01:29:03.227Z,79.46
2022-12-17T01:31:50.452Z,79.23
2022-12-17T01:34:37.299Z,79.32
2022-12-17T01:37:40.958Z,79.41
2022-12-17T01:40:29.061Z,79.47
2022-12-17T01:43:19.325Z,79.51
2022-12-17T01:46:08.716Z,79.35
2022-12-17T01:49:15.774Z,79.56
2022-12-17T01:52:03.252Z,79.70
2022-12-17T01:54:50.129Z,79.51
2022-12-17T01:57:37.393Z,79.61
2022-12-17T02:00:28.396Z,79.75
2022-12-17T02:03:17.882Z,79.59
2022-12-17T02:06:25.840Z,79.44
2022-12-17T02:09:22.748Z,79.49
2022-12-17T02:12:43.870Z,79.41
2022-12-17T02:15:51.433Z,79.70
2022-12-17T02:18:44.373Z,79.53
2022-12-17T02:21:31.933Z,79.55
2022-12-17T02:24:32.689Z,79.76
2022-12-17T02:27:26.385Z,79.99
2022-12-17T02:30:16.125Z,80.03
2022-12-17T02:33:05.956Z,80.10
2022-12-17T02:36:08.798Z,79.97
2022-12-17T02:38:56.810Z,80.07
2022-12-17T02:41:48.956Z,79.91
2022-12-17T02:44:39.224Z,79.87
2022-12-17T02:47:29.674Z,80.03
2022-12-17T02:50:16.275Z,79.96
2022-12-17T02:53:06.973Z,79.94
2022-12-17T02:55:55.172Z,79.78
2022-12-17T02:58:42.110Z,80.01
2022-12-17T03:01:29.086Z,80.04
2022-12-17T03:04:16.281Z,79.86
2022-12-17T03:07:05.484Z,79.86
2022-12-17T03:09:52.241Z,80.10
2022-12-17T03:12:38.931Z,79.97
2022-12-17T03:15:26.485Z,79.91
2022-12-17T03:18:13.596Z,79.67
2022-12-17T03:21:14.324Z,79.72
2022-12-17T03:24:01.398Z,79.57
2022-12-17T03:26:47.859Z,79.62
2022-12-17T03:29:34.348Z,79.37
2022-12-17T03:32:21.479Z,79.35
2022-12-17T03:35:08.049Z,79.23
2022-12-17T03:37:54.773Z,79.24
2022-12-17T03:40:41.514Z,79.09
2022-12-17T03:43:29.727Z,78.97
2022-12-17T03:46:16.680Z,79.15
2022-12-17T03:49:03.470Z,78.85
2022-12-17T03:51:52.484Z,79.04
2022-12-17T03:54:39.432Z,79.12
2022-12-17T03:57:25.925Z,79.15
2022-12-17T04:00:12.911Z,79.03
2022-12-17T04:02:59.447Z,78.96
2022-12-17T04:05:46.673Z,78.97
2022-12-17T04:08:33.496Z,79.18
2022-12-17T04:11:20.590Z,79.26
2022-12-17T04:14:07.637Z,79.10
2022-12-17T04:16:54.681Z,79.26
2022-12-17T04:19:41.103Z,79.32
2022-12-17T04:22:27.993Z,79.02
2022-12-17T04:25:17.523Z,78.99
2022-12-17T04:28:04.129Z,79.05
2022-12-17T04:30:50.762Z,78.90
2022-12-17T04:33:38.765Z,78.81
2022-12-17T04:36:25.961Z,78.79
2022-12-17T04:39:30.284Z,78.73
2022-12-17T04:42:16.615Z,78.90
2022-12-17T04:45:03.844Z,78.89
2022-12-17T04:47:53.936Z,78.88
2022-12-17T04:50:58.732Z,78.89
2022-12-17T04:53:45.537Z,78.85
2022-12-17T04:56:32.839Z,78.86
2022-12-17T04:59:19.503Z,78.86
2022-12-17T05:02:06.372Z,78.82
2022-12-17T05:04:53.085Z,79.03
2022-12-17T05:07:40.005Z,78.70
2022-12-17T05:10:26.808Z,79.07
2022-12-17T05:13:21.321Z,78.79
2022-12-17T05:16:08.305Z,78.69
2022-12-17T05:18:55.257Z,78.65
2022-12-17T05:21:42.102Z,78.83
2022-12-17T05:24:29.168Z,78.40
2022-12-17T05:27:15.549Z,78.48
2022-12-17T05:30:02.822Z,78.44
2022-12-17T05:32:49.223Z,78.57
2022-12-17T05:35:36.525Z,78.53
2022-12-17T05:38:27.716Z,78.65
2022-12-17T05:41:17.110Z,78.53
2022-12-17T05:44:04.305Z,78.43
2022-12-17T05:46:51.363Z,78.29
2022-12-17T05:49:38.070Z,78.47
2022-12-17T05:52:35.763Z,78.23
2022-12-17T05:55:22.712Z,78.26
2022-12-17T05:58:10.001Z,78.34
2022-12-17T06:00:56.478Z,78.11
2022-12-17T06:03:43.825Z,78.25
2022-12-17T06:06:30.697Z,78.26
2022-12-17T06:09:17.845Z,78.23
2022-12-17T06:12:04.335Z,78.34
2022-12-17T06:14:51.271Z,78.10
2022-12-17T06:17:37.650Z,78.01
2022-12-17T06:20:29.060Z,78.23
2022-12-17T06:23:28.227Z,78.04
2022-12-17T06:26:15.998Z,78.19
2022-12-17T06:29:02.583Z,78.21
2022-12-17T06:31:50.017Z,78.32
2022-12-17T06:34:36.388Z,77.86
2022-12-17T06:37:23.154Z,78.16
2022-12-17T06:40:10.461Z,77.94
2022-12-17T06:42:57.383Z,78.00
2022-12-17T06:45:43.837Z,78.25
2022-12-17T06:48:30.724Z,78.04
2022-12-17T06:51:17.401Z,77.89
2022-12-17T06:54:04.488Z,78.12
2022-12-17T06:56:50.872Z,77.85
2022-12-17T06:59:37.887Z,78.31
2022-12-17T07:02:24.943Z,78.34
2022-12-17T07:05:11.953Z,78.22
2022-12-17T07:07:58.682Z,78.24
2022-12-17T07:10:45.784Z,78.08
2022-12-17T07:13:32.317Z,78.09
2022-12-17T07:16:19.645Z,77.98
2022-12-17T07:19:06.281Z,77.91
2022-12-17T07:21:53.160Z,78.22
2022-12-17T07:24:39.489Z,78.07
2022-12-17T07:27:26.156Z,78.09
2022-12-17T07:30:13.064Z,77.65
2022-12-17T07:33:00.052Z,78.22
2022-12-17T07:35:46.707Z,78.09
2022-12-17T07:38:33.765Z,78.03
2022-12-17T07:41:20.816Z,77.98
2022-12-17T07:44:07.697Z,77.73
2022-12-17T07:46:54.560Z,77.74
2022-12-17T07:49:41.572Z,77.54
2022-12-17T07:52:28.334Z,77.63
2022-12-17T07:55:18.183Z,77.46
2022-12-17T07:58:05.405Z,77.64
2022-12-17T08:00:52.410Z,77.44
2022-12-17T08:03:52.737Z,77.48
2022-12-17T08:06:39.532Z,77.65
2022-12-17T08:09:26.417Z,77.42
2022-12-17T08:12:13.015Z,77.38
2022-12-17T08:14:59.837Z,77.36
2022-12-17T08:17:46.805Z,77.29
2022-12-17T08:20:34.256Z,77.15
2022-12-17T08:23:22.833Z,77.26
2022-12-17T08:26:09.571Z,77.44
2022-12-17T08:28:56.227Z,77.24
2022-12-17T08:31:44.476Z,77.26
2022-12-17T08:34:32.016Z,77.37
2022-12-17T08:37:20.854Z,77.29
2022-12-17T08:40:07.796Z,77.21
2022-12-17T08:42:54.603Z,77.58
2022-12-17T08:45:41.825Z,77.47
2022-12-17T08:48:30.534Z,77.40
2022-12-17T08:51:17.360Z,77.38
2022-12-17T08:54:04.375Z,77.03
2022-12-17T08:56:51.487Z,77.22
2022-12-17T08:59:39.468Z,76.94
2022-12-17T09:02:28.409Z,76.84
2022-12-17T09:05:15.395Z,77.14
2022-12-17T09:08:07.880Z,77.01
2022-12-17T09:10:54.562Z,77.24
2022-12-17T09:13:41.310Z,77.09
2022-12-17T09:16:28.025Z,77.38
2022-12-17T09:19:15.192Z,77.32
2022-12-17T09:22:02.105Z,77.05
2022-12-17T09:24:49.333Z,77.25
2022-12-17T09:27:35.716Z,77.18
2022-12-17T09:30:24.428Z,77.15
2022-12-17T09:33:10.963Z,77.15
2022-12-17T09:35:58.699Z,77.22
2022-12-17T09:38:45.614Z,77.36
2022-12-17T09:42:02.812Z,77.36
2022-12-17T09:45:09.561Z,77.41
2022-12-17T09:48:03.545Z,77.60
2022-12-17T09:50:50.325Z,77.49
2022-12-17T09:53:55.048Z,77.56
2022-12-17T09:56:44.683Z,77.66
2022-12-17T09:59:39.555Z,77.77
2022-12-17T10:02:37.775Z,77.18
2022-12-17T10:05:32.789Z,77.23
2022-12-17T10:08:23.004Z,77.60
2022-12-17T10:11:10.800Z,77.22
2022-12-17T10:13:57.469Z,77.29
2022-12-17T10:16:52.122Z,77.36
2022-12-17T10:19:52.946Z,77.44
2022-12-17T10:22:40.381Z,77.12
2022-12-17T10:25:40.034Z,77.10
2022-12-17T10:28:31.651Z,77.06
2022-12-17T10:31:19.861Z,76.97
2022-12-17T10:34:06.513Z,76.84
2022-12-17T10:36:53.314Z,76.66
2022-12-17T10:39:43.203Z,76.70
2022-12-17T10:42:47.688Z,76.70
2022-12-17T10:45:45.156Z,76.82
2022-12-17T10:48:45.929Z,76.91
2022-12-17T10:51:38.410Z,77.02
2022-12-17T10:54:49.065Z,77.02
2022-12-17T10:57:52.337Z,77.07
2022-12-17T11:00:50.322Z,76.92
2022-12-17T11:03:48.039Z,77.08
2022-12-17T11:06:58.722Z,77.02
2022-12-17T11:09:48.397Z,77.04
2022-12-17T11:12:38.200Z,76.75
2022-12-17T11:15:42.257Z,76.65
2022-12-17T11:18:38.176Z,76.84
2022-12-17T11:21:38.750Z,76.74
2022-12-17T11:24:33.358Z,76.78
2022-12-17T11:27:22.901Z,76.67
2022-12-17T11:30:09.296Z,76.68
2022-12-17T11:33:17.176Z,76.83
2022-12-17T11:36:15.761Z,76.94
2022-12-17T11:39:10.048Z,77.00
2022-12-17T11:42:26.913Z,76.76
2022-12-17T11:45:38.059Z,77.03
2022-12-17T11:48:57.155Z,76.65
2022-12-17T11:51:48.076Z,76.57
2022-12-17T11:54:44.447Z,76.78
2022-12-17T11:57:53.210Z,76.70
2022-12-17T12:00:43.102Z,77.03
2022-12-17T12:03:51.807Z,76.64
2022-12-17T12:07:14.131Z,76.66
2022-12-17T12:10:22.481Z,76.66
2022-12-17T12:13:31.539Z,76.83
2022-12-17T12:16:43.408Z,76.84
2022-12-17T12:19:41.274Z,76.51
2022-12-17T12:22:48.667Z,76.63
2022-12-17T12:25:53.440Z,76.40
2022-12-17T12:29:11.749Z,76.60
2022-12-17T12:32:27.378Z,76.31
2022-12-17T12:35:21.942Z,76.40
2022-12-17T12:38:08.826Z,76.48
2022-12-17T12:41:01.387Z,76.55
2022-12-17T12:43:53.852Z,76.30
2022-12-17T12:46:48.736Z,76.25
2022-12-17T12:49:47.565Z,76.47
2022-12-17T12:52:40.811Z,76.49
2022-12-17T12:55:32.863Z,76.39
2022-12-17T12:58:42.169Z,76.34
2022-12-17T13:01:29.582Z,76.40
2022-12-17T13:04:18.052Z,76.49
2022-12-17T13:06:59.782Z,76.42
2022-12-17T13:09:32.504Z,76.63
2022-12-17T13:12:02.813Z,76.46
2022-12-17T13:14:36.895Z,76.32
2022-12-17T13:17:20.218Z,76.10
2022-12-17T13:19:57.575Z,76.04
2022-12-17T13:22:25.370Z,76.10
2022-12-17T13:25:15.712Z,76.24
2022-12-17T13:27:44.586Z,76.23
2022-12-17T13:30:18.854Z,76.21
2022-12-17T13:32:58.715Z,76.31
2022-12-17T13:35:45.199Z,76.29
2022-12-17T13:38:35.344Z,76.48
2022-12-17T13:41:10.395Z,76.28
2022-12-17T13:44:03.963Z,76.23
2022-12-17T13:46:47.242Z,76.40
2022-12-17T13:49:22.103Z,76.51
2022-12-17T13:52:11.125Z,76.48
2022-12-17T13:54:39.782Z,76.38
2022-12-17T13:57:20.259Z,76.52
2022-12-17T13:59:59.895Z,76.40
2022-12-17T14:02:42.798Z,76.23
2022-12-17T14:05:33.423Z,76.24
2022-12-17T14:08:03.941Z,76.13
2022-12-17T14:10:33.055Z,76.26
2022-12-17T14:13:14.848Z,76.34
2022-12-17T14:15:49.155Z,76.32
2022-12-17T14:18:20.934Z,76.61
2022-12-17T14:20:51.898Z,76.52
2022-12-17T14:23:32.328Z,76.61
2022-12-17T14:26:00.604Z,76.78
2022-12-17T14:28:33.793Z,76.75
2022-12-17T14:34:08.136Z,76.57
2022-12-17T14:36:39.756Z,76.28
2022-12-17T14:39:21.407Z,76.30
2022-12-17T14:42:08.429Z,76.49
2022-12-17T14:44:42.897Z,76.26
2022-12-17T14:47:31.398Z,76.34
2022-12-17T14:50:26.498Z,76.27
2022-12-17T14:52:57.629Z,76.45
2022-12-17T14:55:57.860Z,76.28
2022-12-17T14:58:27.778Z,76.28
2022-12-17T15:01:09.244Z,76.15
2022-12-17T15:03:42.150Z,76.32
2022-12-17T15:06:13.312Z,76.32
2022-12-17T15:08:45.363Z,76.03
2022-12-17T15:11:16.808Z,75.93
2022-12-17T15:13:56.793Z,75.86
2022-12-17T15:16:25.190Z,75.72
2022-12-17T15:18:53.511Z,75.85
2022-12-17T15:21:22.043Z,75.86
2022-12-17T15:23:50.716Z,75.91
2022-12-17T15:26:19.995Z,76.21
2022-12-17T15:28:48.263Z,76.03
2022-12-17T15:31:18.679Z,76.06
2022-12-17T15:33:50.337Z,76.11
2022-12-17T15:36:18.401Z,76.36
2022-12-17T15:38:46.488Z,76.23
2022-12-17T15:41:42.843Z,76.23
2022-12-17T15:44:10.660Z,76.28
2022-12-17T15:46:39.866Z,76.31
2022-12-17T15:49:07.879Z,76.38
2022-12-17T15:51:35.703Z,76.61
2022-12-17T15:54:04.247Z,76.25
2022-12-17T15:56:32.370Z,76.45
2022-12-17T15:59:00.367Z,76.38
2022-12-17T16:01:28.817Z,76.56
2022-12-17T16:03:58.232Z,76.42
2022-12-17T16:06:26.420Z,76.72
2022-12-17T16:08:54.610Z,76.33
2022-12-17T16:11:22.598Z,76.52
2022-12-17T16:13:55.235Z,76.55
2022-12-17T16:16:23.674Z,76.41
2022-12-17T16:18:52.220Z,76.14
2022-12-17T16:21:20.051Z,76.42
2022-12-17T16:23:48.391Z,76.21
2022-12-17T16:26:16.360Z,76.32
2022-12-17T16:28:44.275Z,76.15
2022-12-17T16:31:15.591Z,76.27
2022-12-17T16:33:45.611Z,76.17
2022-12-17T16:36:17.169Z,76.33
2022-12-17T16:38:47.347Z,76.44
2022-12-17T16:41:16.613Z,76.54
2022-12-17T16:43:45.153Z,76.39
2022-12-17T16:46:31.486Z,76.67
2022-12-17T16:49:05.819Z,76.40
2022-12-17T16:51:34.013Z,76.31
2022-12-17T16:54:06.249Z,76.29
2022-12-17T16:56:39.623Z,76.50
2022-12-17T16:59:09.494Z,76.42
2022-12-17T17:01:39.094Z,76.44
2022-12-17T17:04:09.493Z,76.29
2022-12-17T17:06:51.449Z,76.39
2022-12-17T17:09:20.511Z,76.37
2022-12-17T17:11:51.829Z,76.64
2022-12-17T17:14:20.648Z,76.42
2022-12-17T17:16:49.126Z,76.56
2022-12-17T17:19:18.566Z,76.55
2022-12-17T17:21:52.753Z,76.65
2022-12-17T17:24:24.320Z,76.58
2022-12-17T17:26:54.160Z,76.42
2022-12-17T17:29:22.608Z,76.45
2022-12-17T17:32:10.004Z,76.48
2022-12-17T17:34:40.280Z,76.16
2022-12-17T17:37:08.225Z,76.28
2022-12-17T17:39:36.432Z,76.74
2022-12-17T17:42:04.629Z,76.53
2022-12-17T17:44:32.666Z,76.57
2022-12-17T17:47:01.400Z,76.56
2022-12-17T17:49:30.039Z,76.53
2022-12-17T17:52:09.622Z,76.77
2022-12-17T17:54:40.050Z,76.71
2022-12-17T17:57:09.574Z,76.77
2022-12-17T17:59:39.578Z,76.90
2022-12-17T18:02:10.336Z,76.70
2022-12-17T18:04:38.520Z,76.86
2022-12-17T18:07:24.893Z,76.78
2022-12-17T18:09:55.069Z,76.72
2022-12-17T18:12:42.155Z,76.91
2022-12-17T18:15:15.896Z,76.83
2022-12-17T18:17:51.153Z,77.02
2022-12-17T18:20:19.389Z,77.26
2022-12-17T18:22:47.557Z,77.08
2022-12-17T18:25:17.998Z,77.20
2022-12-17T18:27:46.222Z,77.12
2022-12-17T18:30:16.545Z,77.22
2022-12-17T18:32:45.384Z,77.50
2022-12-17T18:35:13.753Z,77.25
2022-12-17T18:37:41.850Z,77.06
2022-12-17T18:40:10.625Z,77.19
2022-12-17T18:42:57.727Z,77.27
2022-12-17T18:45:25.658Z,77.17
2022-12-17T18:47:53.870Z,77.29
2022-12-17T18:50:22.181Z,77.22
2022-12-17T18:52:50.152Z,77.24
2022-12-17T18:55:18.617Z,77.37
2022-12-17T18:57:47.136Z,77.37
2022-12-17T19:00:15.307Z,77.51
2022-12-17T19:02:44.414Z,77.54
2022-12-17T19:05:13.003Z,77.56
2022-12-17T19:07:40.994Z,77.76
2022-12-17T19:10:09.863Z,77.70
2022-12-17T19:12:37.813Z,77.67
2022-12-17T19:15:06.213Z,77.87
2022-12-17T19:17:35.434Z,77.77
2022-12-17T19:20:04.626Z,77.89
2022-12-17T19:22:32.648Z,77.89
2022-12-17T19:25:00.931Z,77.69
2022-12-17T19:27:29.096Z,78.09
2022-12-17T19:29:57.519Z,77.88
2022-12-17T19:32:26.133Z,77.75
2022-12-17T19:34:54.482Z,77.90
2022-12-17T19:37:22.548Z,77.89
2022-12-17T19:39:50.651Z,78.15
2022-12-17T19:42:25.269Z,78.07
2022-12-17T19:44:56.732Z,78.09
2022-12-17T19:47:24.839Z,77.82
2022-12-17T19:49:52.829Z,78.01
2022-12-17T19:52:21.384Z,77.99
2022-12-17T19:54:49.384Z,78.14
2022-12-17T19:57:17.408Z,78.11
2022-12-17T19:59:45.647Z,77.98
2022-12-17T20:02:15.803Z,77.99
2022-12-17T20:04:44.104Z,77.76
2022-12-17T20:07:12.192Z,77.82
2022-12-17T20:09:44.173Z,77.96
2022-12-17T20:12:12.789Z,78.03
2022-12-17T20:14:40.965Z,77.91
2022-12-17T20:17:09.540Z,78.08
2022-12-17T20:19:37.748Z,78.06
2022-12-17T20:22:06.726Z,78.02
2022-12-17T20:24:35.061Z,77.95
2022-12-17T20:27:03.493Z,78.20
2022-12-17T20:29:31.794Z,78.04
2022-12-17T20:32:02.542Z,77.93
2022-12-17T20:34:30.718Z,78.09
2022-12-17T20:36:58.870Z,78.00
2022-12-17T20:39:28.182Z,78.04
2022-12-17T20:41:57.504Z,78.18
2022-12-17T20:44:26.464Z,77.94
2022-12-17T20:46:54.377Z,77.96
2022-12-17T20:49:22.475Z,77.84
2022-12-17T20:51:50.676Z,78.13
2022-12-17T20:54:18.683Z,77.70
2022-12-17T20:56:47.125Z,78.19
2022-12-17T20:59:17.751Z,78.09
2022-12-17T21:01:50.397Z,78.27
2022-12-17T21:04:23.454Z,77.97
2022-12-17T21:06:51.405Z,78.18
2022-12-17T21:09:20.978Z,78.13
2022-12-17T21:11:49.614Z,78.13
2022-12-17T21:14:19.008Z,77.97
2022-12-17T21:16:47.721Z,77.97
2022-12-17T21:19:19.281Z,77.95
2022-12-17T21:21:48.145Z,78.18
2022-12-17T21:24:16.369Z,78.24
2022-12-17T21:26:46.164Z,77.94
2022-12-17T21:29:14.900Z,78.25
2022-12-17T21:31:49.169Z,78.16
2022-12-17T21:34:25.524Z,78.30
2022-12-17T21:36:53.910Z,78.28
2022-12-17T21:39:22.104Z,78.10
2022-12-17T21:42:09.279Z,78.27
2022-12-17T21:44:37.580Z,78.16
2022-12-17T21:47:05.639Z,78.29
2022-12-17T21:49:34.033Z,78.30
2022-12-17T21:52:03.202Z,78.36
2022-12-17T21:54:31.240Z,78.37
2022-12-17T21:56:59.441Z,78.20
2022-12-17T21:59:27.997Z,78.31
2022-12-17T22:01:57.668Z,78.29
2022-12-17T22:04:27.469Z,78.02
2022-12-17T22:06:58.292Z,78.28
2022-12-17T22:09:54.751Z,77.87
2022-12-17T22:12:43.661Z,78.13
2022-12-17T22:15:13.208Z,78.03
2022-12-17T22:17:45.125Z,77.84
2022-12-17T22:20:20.551Z,77.88
2022-12-17T22:22:49.171Z,77.97
2022-12-17T22:25:17.374Z,77.97
2022-12-17T22:27:45.743Z,77.86
2022-12-17T22:30:36.557Z,77.85
2022-12-17T22:33:35.410Z,77.98
2022-12-17T22:37:16.038Z,77.74
2022-12-17T22:42:42.971Z,77.85
2022-12-17T22:44:41.785Z,78.16
2022-12-17T22:44:56.651Z,78.01
2022-12-17T22:47:27.197Z,77.86
2022-12-17T22:49:55.105Z,77.88
2022-12-17T22:52:23.958Z,77.97
2022-12-17T22:54:52.804Z,77.96
2022-12-17T22:57:35.076Z,77.95
2022-12-17T23:00:16.374Z,77.76
2022-12-17T23:02:44.635Z,77.80
2022-12-17T23:05:13.382Z,77.81
2022-12-17T23:07:41.330Z,77.92
2022-12-17T23:10:10.031Z,77.89
2022-12-17T23:12:51.002Z,77.81
2022-12-17T23:15:25.856Z,77.80
2022-12-17T23:17:56.368Z,77.85
2022-12-17T23:20:26.113Z,77.73
2022-12-17T23:22:54.035Z,77.81
2022-12-17T23:25:23.220Z,77.91
2022-12-17T23:27:52.058Z,77.74
2022-12-17T23:30:20.858Z,77.80
2022-12-17T23:32:49.033Z,77.72
2022-12-17T23:35:17.017Z,77.51
2022-12-17T23:37:44.965Z,77.35
2022-12-17T23:40:13.745Z,77.56
2022-12-17T23:42:41.979Z,77.73
2022-12-17T23:45:11.755Z,77.68
2022-12-17T23:47:41.270Z,77.74
2022-12-17T23:50:11.297Z,77.91
2022-12-17T23:52:39.573Z,78.03
2022-12-17T23:55:08.349Z,77.86
2022-12-17T23:57:36.383Z,77.72
